sensor_id;sensor_type;location;lat;lon;timestamp;pressure;altitude;pressure_sealevel;temperature;humidity
60583;BME280;46415;47.536;19.066;2022-09-09T00:04:35;100154.19;;;16.82;100.00
60583;BME280;46415;47.536;19.066;2022-09-09T00:07:43;100156.13;;;16.80;100.00
60583;BME280;46415;47.536;19.066;2022-09-09T00:10:53;100146.78;;;16.76;100.00
60583;BME280;46415;47.536;19.066;2022-09-09T00:14:03;100136.00;;;16.80;100.00
60583;BME280;46415;47.536;19.066;2022-09-09T00:17:34;100136.59;;;16.84;100.00
60583;BME280;46415;47.536;19.066;2022-09-09T00:20:44;100129.56;;;16.84;100.00
60583;BME280;46415;47.536;19.066;2022-09-09T00:23:54;100140.59;;;16.77;100.00
60583;BME280;46415;47.536;19.066;2022-09-09T00:27:04;100152.25;;;16.72;100.00
60583;BME280;46415;47.536;19.066;2022-09-09T00:30:16;100149.16;;;16.67;100.00
60583;BME280;46415;47.536;19.066;2022-09-09T00:33:24;100147.81;;;16.62;100.00
60583;BME280;46415;47.536;19.066;2022-09-09T00:36:31;100146.53;;;16.67;100.00
60583;BME280;46415;47.536;19.066;2022-09-09T00:39:45;100148.84;;;16.59;100.00
60583;BME280;46415;47.536;19.066;2022-09-09T00:42:58;100149.34;;;16.64;100.00
60583;BME280;46415;47.536;19.066;2022-09-09T00:56:20;100161.63;;;16.51;100.00
60583;BME280;46415;47.536;19.066;2022-09-09T00:59:46;100159.00;;;16.64;100.00
60583;BME280;46415;47.536;19.066;2022-09-09T01:06:29;100163.28;;;16.65;100.00
60583;BME280;46415;47.536;19.066;2022-09-09T01:09:52;100172.72;;;16.55;100.00
60583;BME280;46415;47.536;19.066;2022-09-09T01:13:01;100176.28;;;16.54;100.00
60583;BME280;46415;47.536;19.066;2022-09-09T01:16:10;100173.16;;;16.61;100.00
60583;BME280;46415;47.536;19.066;2022-09-09T01:19:27;100178.06;;;16.66;100.00
60583;BME280;46415;47.536;19.066;2022-09-09T01:26:21;100172.50;;;16.70;100.00
60583;BME280;46415;47.536;19.066;2022-09-09T01:29:27;100160.47;;;16.68;100.00
60583;BME280;46415;47.536;19.066;2022-09-09T01:32:44;100171.25;;;16.63;100.00
60583;BME280;46415;47.536;19.066;2022-09-09T01:38:59;100179.41;;;16.71;100.00
60583;BME280;46415;47.536;19.066;2022-09-09T01:42:05;100183.41;;;16.64;100.00
60583;BME280;46415;47.536;19.066;2022-09-09T01:45:09;100171.94;;;16.78;100.00
60583;BME280;46415;47.536;19.066;2022-09-09T01:48:12;100170.38;;;16.76;100.00
60583;BME280;46415;47.536;19.066;2022-09-09T01:51:15;100165.38;;;16.72;100.00
60583;BME280;46415;47.536;19.066;2022-09-09T01:54:20;100170.81;;;16.69;100.00
60583;BME280;46415;47.536;19.066;2022-09-09T01:57:28;100179.81;;;16.78;100.00
60583;BME280;46415;47.536;19.066;2022-09-09T02:00:37;100179.16;;;16.74;100.00
60583;BME280;46415;47.536;19.066;2022-09-09T02:03:44;100182.53;;;16.77;100.00
60583;BME280;46415;47.536;19.066;2022-09-09T02:06:52;100177.78;;;16.82;100.00
60583;BME280;46415;47.536;19.066;2022-09-09T02:10:12;100179.81;;;16.78;100.00
60583;BME280;46415;47.536;19.066;2022-09-09T02:13:20;100178.97;;;16.78;100.00
60583;BME280;46415;47.536;19.066;2022-09-09T02:16:30;100182.31;;;16.80;100.00
60583;BME280;46415;47.536;19.066;2022-09-09T02:19:39;100184.22;;;16.78;100.00
60583;BME280;46415;47.536;19.066;2022-09-09T02:22:48;100194.34;;;16.82;100.00
60583;BME280;46415;47.536;19.066;2022-09-09T02:25:53;100194.34;;;16.82;100.00
60583;BME280;46415;47.536;19.066;2022-09-09T02:28:59;100191.12;;;16.79;100.00
60583;BME280;46415;47.536;19.066;2022-09-09T02:32:06;100189.44;;;16.78;100.00
60583;BME280;46415;47.536;19.066;2022-09-09T02:35:15;100181.09;;;16.72;100.00
60583;BME280;46415;47.536;19.066;2022-09-09T02:38:21;100194.97;;;16.62;100.00
60583;BME280;46415;47.536;19.066;2022-09-09T02:41:31;100195.91;;;16.61;100.00
60583;BME280;46415;47.536;19.066;2022-09-09T02:44:35;100196.00;;;16.59;100.00
60583;BME280;46415;47.536;19.066;2022-09-09T02:47:59;100195.38;;;16.56;100.00
60583;BME280;46415;47.536;19.066;2022-09-09T02:51:17;100202.09;;;16.60;100.00
60583;BME280;46415;47.536;19.066;2022-09-09T02:54:30;100199.78;;;16.55;100.00
60583;BME280;46415;47.536;19.066;2022-09-09T02:57:35;100190.66;;;16.61;100.00
60583;BME280;46415;47.536;19.066;2022-09-09T03:00:40;100195.38;;;16.56;100.00
60583;BME280;46415;47.536;19.066;2022-09-09T03:03:43;100198.53;;;16.48;100.00
60583;BME280;46415;47.536;19.066;2022-09-09T03:06:47;100192.13;;;16.52;100.00
60583;BME280;46415;47.536;19.066;2022-09-09T03:09:50;100195.56;;;16.53;100.00
60583;BME280;46415;47.536;19.066;2022-09-09T03:12:53;100188.38;;;16.44;100.00
60583;BME280;46415;47.536;19.066;2022-09-09T03:15:56;100200.22;;;16.37;100.00
60583;BME280;46415;47.536;19.066;2022-09-09T03:19:00;100212.19;;;16.28;100.00
60583;BME280;46415;47.536;19.066;2022-09-09T03:22:05;100209.63;;;16.39;100.00
60583;BME280;46415;47.536;19.066;2022-09-09T03:25:09;100197.28;;;16.41;100.00
60583;BME280;46415;47.536;19.066;2022-09-09T03:28:12;100207.34;;;16.34;100.00
60583;BME280;46415;47.536;19.066;2022-09-09T03:31:19;100212.59;;;16.34;100.00
60583;BME280;46415;47.536;19.066;2022-09-09T03:34:22;100217.66;;;16.25;100.00
60583;BME280;46415;47.536;19.066;2022-09-09T03:37:26;100212.41;;;16.25;100.00
60583;BME280;46415;47.536;19.066;2022-09-09T03:40:29;100216.91;;;16.23;100.00
60583;BME280;46415;47.536;19.066;2022-09-09T03:43:33;100212.09;;;16.17;100.00
60583;BME280;46415;47.536;19.066;2022-09-09T03:46:36;100209.47;;;16.17;100.00
60583;BME280;46415;47.536;19.066;2022-09-09T03:49:41;100199.94;;;16.16;100.00
60583;BME280;46415;47.536;19.066;2022-09-09T03:52:43;100204.03;;;16.20;100.00
60583;BME280;46415;47.536;19.066;2022-09-09T03:55:53;100203.28;;;16.18;100.00
60583;BME280;46415;47.536;19.066;2022-09-09T03:58:57;100217.75;;;16.11;100.00
60583;BME280;46415;47.536;19.066;2022-09-09T04:02:01;100222.97;;;16.11;100.00
60583;BME280;46415;47.536;19.066;2022-09-09T04:05:05;100223.31;;;16.06;100.00
60583;BME280;46415;47.536;19.066;2022-09-09T04:08:09;100221.62;;;16.05;100.00
60583;BME280;46415;47.536;19.066;2022-09-09T04:11:12;100223.91;;;16.10;100.00
60583;BME280;46415;47.536;19.066;2022-09-09T04:14:15;100222.88;;;16.12;100.00
60583;BME280;46415;47.536;19.066;2022-09-09T04:17:19;100219.84;;;16.06;100.00
60583;BME280;46415;47.536;19.066;2022-09-09T04:20:22;100224.34;;;16.04;100.00
60583;BME280;46415;47.536;19.066;2022-09-09T04:23:27;100230.53;;;16.03;100.00
60583;BME280;46415;47.536;19.066;2022-09-09T04:26:32;100234.72;;;16.05;100.00
60583;BME280;46415;47.536;19.066;2022-09-09T04:29:35;100227.69;;;16.06;100.00
60583;BME280;46415;47.536;19.066;2022-09-09T04:32:38;100224.34;;;16.04;100.00
60583;BME280;46415;47.536;19.066;2022-09-09T04:35:49;100225.81;;;16.08;100.00
60583;BME280;46415;47.536;19.066;2022-09-09T04:38:53;100228.62;;;16.05;100.00
60583;BME280;46415;47.536;19.066;2022-09-09T04:41:56;100234.63;;;16.07;100.00
60583;BME280;46415;47.536;19.066;2022-09-09T04:44:58;100232.84;;;16.20;100.00
60583;BME280;46415;47.536;19.066;2022-09-09T04:48:01;100227.37;;;16.23;100.00
60583;BME280;46415;47.536;19.066;2022-09-09T04:51:06;100222.66;;;16.28;100.00
60583;BME280;46415;47.536;19.066;2022-09-09T04:54:09;100219.72;;;16.32;100.00
60583;BME280;46415;47.536;19.066;2022-09-09T04:57:14;100222.03;;;16.37;100.00
60583;BME280;46415;47.536;19.066;2022-09-09T05:00:25;100220.66;;;16.44;100.00
60583;BME280;46415;47.536;19.066;2022-09-09T05:03:29;100221.69;;;16.54;100.00
60583;BME280;46415;47.536;19.066;2022-09-09T05:06:32;100222.72;;;16.64;100.00
60583;BME280;46415;47.536;19.066;2022-09-09T05:09:35;100234.88;;;16.65;100.00
60583;BME280;46415;47.536;19.066;2022-09-09T05:12:39;100233.50;;;16.72;100.00
60583;BME280;46415;47.536;19.066;2022-09-09T05:15:41;100232.75;;;16.70;100.00
60583;BME280;46415;47.536;19.066;2022-09-09T05:18:46;100229.50;;;16.80;100.00
60583;BME280;46415;47.536;19.066;2022-09-09T05:21:49;100232.72;;;16.83;100.00
60583;BME280;46415;47.536;19.066;2022-09-09T05:24:52;100228.28;;;16.96;100.00
60583;BME280;46415;47.536;19.066;2022-09-09T05:27:56;100234.13;;;17.00;100.00
60583;BME280;46415;47.536;19.066;2022-09-09T05:31:05;100233.25;;;17.12;100.00
60583;BME280;46415;47.536;19.066;2022-09-09T05:34:11;100230.91;;;17.20;100.00
60583;BME280;46415;47.536;19.066;2022-09-09T05:37:16;100241.19;;;17.34;100.00
60583;BME280;46415;47.536;19.066;2022-09-09T05:40:19;100240.53;;;17.43;100.00
60583;BME280;46415;47.536;19.066;2022-09-09T05:43:25;100238.69;;;17.57;100.00
60583;BME280;46415;47.536;19.066;2022-09-09T05:46:28;100238.13;;;17.64;100.00
60583;BME280;46415;47.536;19.066;2022-09-09T05:49:31;100238.53;;;17.82;100.00
60583;BME280;46415;47.536;19.066;2022-09-09T05:52:34;100234.00;;;17.84;100.00
60583;BME280;46415;47.536;19.066;2022-09-09T05:55:37;100231.62;;;17.92;100.00
60583;BME280;46415;47.536;19.066;2022-09-09T05:58:40;100237.25;;;17.99;100.00
60583;BME280;46415;47.536;19.066;2022-09-09T06:01:46;100235.47;;;18.10;100.00
60583;BME280;46415;47.536;19.066;2022-09-09T06:04:52;100232.88;;;18.21;100.00
60583;BME280;46415;47.536;19.066;2022-09-09T06:08:00;100237.75;;;18.37;100.00
60583;BME280;46415;47.536;19.066;2022-09-09T06:11:30;100244.44;;;18.52;100.00
60583;BME280;46415;47.536;19.066;2022-09-09T06:14:38;100247.19;;;18.73;100.00
60583;BME280;46415;47.536;19.066;2022-09-09T06:17:54;100252.62;;;19.03;100.00
60583;BME280;46415;47.536;19.066;2022-09-09T06:20:58;100244.31;;;19.30;99.02
60583;BME280;46415;47.536;19.066;2022-09-09T06:24:03;100249.00;;;19.59;97.73
60583;BME280;46415;47.536;19.066;2022-09-09T06:27:06;100246.75;;;19.54;96.02
60583;BME280;46415;47.536;19.066;2022-09-09T06:30:10;100251.19;;;19.53;96.24
60583;BME280;46415;47.536;19.066;2022-09-09T06:33:13;100249.56;;;19.62;96.34
60583;BME280;46415;47.536;19.066;2022-09-09T06:36:21;100257.06;;;19.67;95.83
60583;BME280;46415;47.536;19.066;2022-09-09T06:39:24;100264.00;;;19.68;94.18
60583;BME280;46415;47.536;19.066;2022-09-09T06:42:30;100260.03;;;19.73;93.49
60583;BME280;46415;47.536;19.066;2022-09-09T06:45:38;100257.72;;;19.80;92.90
60583;BME280;46415;47.536;19.066;2022-09-09T06:48:42;100251.94;;;19.86;92.37
60583;BME280;46415;47.536;19.066;2022-09-09T06:51:45;100248.81;;;19.71;92.76
60583;BME280;46415;47.536;19.066;2022-09-09T06:54:49;100257.66;;;19.70;92.82
60583;BME280;46415;47.536;19.066;2022-09-09T06:57:55;100253.28;;;19.80;92.02
60583;BME280;46415;47.536;19.066;2022-09-09T07:01:06;100253.63;;;19.66;92.56
60583;BME280;46415;47.536;19.066;2022-09-09T07:04:10;100256.06;;;19.58;93.02
60583;BME280;46415;47.536;19.066;2022-09-09T07:07:14;100261.81;;;19.52;93.91
60583;BME280;46415;47.536;19.066;2022-09-09T07:10:19;100258.16;;;19.32;95.03
60583;BME280;46415;47.536;19.066;2022-09-09T07:13:25;100273.50;;;19.27;96.24
60583;BME280;46415;47.536;19.066;2022-09-09T07:16:29;100271.47;;;19.20;96.90
60583;BME280;46415;47.536;19.066;2022-09-09T07:19:35;100273.69;;;19.03;99.38
60583;BME280;46415;47.536;19.066;2022-09-09T07:22:38;100272.50;;;18.85;98.31
60583;BME280;46415;47.536;19.066;2022-09-09T07:25:46;100269.47;;;19.12;98.36
60583;BME280;46415;47.536;19.066;2022-09-09T07:28:50;100261.84;;;19.41;96.81
60583;BME280;46415;47.536;19.066;2022-09-09T07:31:57;100269.59;;;19.53;95.69
60583;BME280;46415;47.536;19.066;2022-09-09T07:35:02;100268.44;;;19.67;95.34
60583;BME280;46415;47.536;19.066;2022-09-09T07:38:05;100273.12;;;19.84;93.89
60583;BME280;46415;47.536;19.066;2022-09-09T07:41:12;100281.13;;;19.94;91.44
60583;BME280;46415;47.536;19.066;2022-09-09T07:44:18;100277.91;;;20.11;90.45
60583;BME280;46415;47.536;19.066;2022-09-09T07:47:24;100284.59;;;20.36;92.61
60583;BME280;46415;47.536;19.066;2022-09-09T07:50:27;100280.91;;;20.58;90.99
60583;BME280;46415;47.536;19.066;2022-09-09T07:53:30;100286.16;;;20.78;87.33
60583;BME280;46415;47.536;19.066;2022-09-09T07:56:33;100280.63;;;20.91;85.71
60583;BME280;46415;47.536;19.066;2022-09-09T07:59:37;100288.81;;;20.98;85.44
60583;BME280;46415;47.536;19.066;2022-09-09T08:02:40;100282.06;;;21.14;85.49
60583;BME280;46415;47.536;19.066;2022-09-09T08:05:44;100283.28;;;21.10;83.24
60583;BME280;46415;47.536;19.066;2022-09-09T08:08:50;100287.38;;;21.24;82.39
60583;BME280;46415;47.536;19.066;2022-09-09T08:11:54;100283.47;;;21.28;81.96
60583;BME280;46415;47.536;19.066;2022-09-09T08:14:58;100284.19;;;21.30;81.31
60583;BME280;46415;47.536;19.066;2022-09-09T08:18:02;100288.34;;;21.23;83.00
60583;BME280;46415;47.536;19.066;2022-09-09T08:24:10;100276.00;;;21.43;80.11
60583;BME280;46415;47.536;19.066;2022-09-09T08:27:13;100273.75;;;21.57;79.45
60583;BME280;46415;47.536;19.066;2022-09-09T08:30:16;100285.59;;;21.73;77.63
60583;BME280;46415;47.536;19.066;2022-09-09T08:33:19;100282.81;;;21.74;79.64
60583;BME280;46415;47.536;19.066;2022-09-09T08:36:25;100282.50;;;21.87;77.53
60583;BME280;46415;47.536;19.066;2022-09-09T08:39:28;100277.06;;;21.88;77.37
60583;BME280;46415;47.536;19.066;2022-09-09T08:42:40;100268.75;;;22.03;78.08
60583;BME280;46415;47.536;19.066;2022-09-09T08:49:17;100275.78;;;22.21;75.65
60583;BME280;46415;47.536;19.066;2022-09-09T08:52:28;100279.25;;;22.31;74.81
60583;BME280;46415;47.536;19.066;2022-09-09T08:58:55;100273.66;;;22.34;75.83
60583;BME280;46415;47.536;19.066;2022-09-09T09:05:36;100280.66;;;22.63;74.30
60583;BME280;46415;47.536;19.066;2022-09-09T09:08:51;100277.63;;;22.85;75.10
60583;BME280;46415;47.536;19.066;2022-09-09T09:11:58;100281.37;;;22.92;71.25
60583;BME280;46415;47.536;19.066;2022-09-09T09:15:09;100275.00;;;22.85;71.36
60583;BME280;46415;47.536;19.066;2022-09-09T09:18:13;100274.66;;;22.98;72.42
60583;BME280;46415;47.536;19.066;2022-09-09T09:21:26;100271.47;;;23.12;70.37
60583;BME280;46415;47.536;19.066;2022-09-09T09:24:46;100272.78;;;23.26;69.75
60583;BME280;46415;47.536;19.066;2022-09-09T09:28:31;100273.63;;;23.44;66.83
60583;BME280;46415;47.536;19.066;2022-09-09T09:31:36;100267.03;;;23.66;67.67
60583;BME280;46415;47.536;19.066;2022-09-09T09:34:39;100254.00;;;23.72;67.05
60583;BME280;46415;47.536;19.066;2022-09-09T09:37:42;100258.47;;;23.72;63.84
60583;BME280;46415;47.536;19.066;2022-09-09T09:41:07;100254.00;;;23.72;65.66
60583;BME280;46415;47.536;19.066;2022-09-09T09:47:26;100242.16;;;23.84;63.91
60583;BME280;46415;47.536;19.066;2022-09-09T09:50:34;100241.03;;;23.87;64.83
60583;BME280;46415;47.536;19.066;2022-09-09T09:53:38;100237.78;;;23.93;61.83
60583;BME280;46415;47.536;19.066;2022-09-09T09:56:42;100247.37;;;24.20;63.30
60583;BME280;46415;47.536;19.066;2022-09-09T09:59:46;100254.66;;;24.18;61.57
60583;BME280;46415;47.536;19.066;2022-09-09T10:02:50;100253.09;;;24.33;61.03
60583;BME280;46415;47.536;19.066;2022-09-09T10:05:55;100254.53;;;24.53;59.39
60583;BME280;46415;47.536;19.066;2022-09-09T10:08:59;100260.34;;;24.57;57.44
60583;BME280;46415;47.536;19.066;2022-09-09T10:12:08;100252.00;;;24.86;55.71
60583;BME280;46415;47.536;19.066;2022-09-09T10:15:35;100248.16;;;24.80;55.59
60583;BME280;46415;47.536;19.066;2022-09-09T10:25:19;100245.81;;;24.69;56.48
60583;BME280;46415;47.536;19.066;2022-09-09T10:29:01;100237.88;;;24.77;55.24
60583;BME280;46415;47.536;19.066;2022-09-09T10:32:14;100239.84;;;24.75;54.44
60583;BME280;46415;47.536;19.066;2022-09-09T10:38:50;100235.88;;;24.79;55.63
60583;BME280;46415;47.536;19.066;2022-09-09T10:42:16;100237.44;;;24.98;53.22
60583;BME280;46415;47.536;19.066;2022-09-09T10:45:41;100236.47;;;25.15;54.63
60583;BME280;46415;47.536;19.066;2022-09-09T10:55:37;100242.97;;;26.26;51.50
60583;BME280;46415;47.536;19.066;2022-09-09T10:58:48;100241.22;;;26.41;51.14
60583;BME280;46415;47.536;19.066;2022-09-09T11:05:08;100232.59;;;26.39;51.57
60583;BME280;46415;47.536;19.066;2022-09-09T11:08:23;100227.22;;;25.92;50.02
60583;BME280;46415;47.536;19.066;2022-09-09T11:11:32;100232.03;;;25.88;50.55
60583;BME280;46415;47.536;19.066;2022-09-09T11:14:41;100226.50;;;26.06;49.46
60583;BME280;46415;47.536;19.066;2022-09-09T11:17:49;100223.37;;;25.86;49.82
60583;BME280;46415;47.536;19.066;2022-09-09T11:20:58;100214.59;;;25.78;50.12
60583;BME280;46415;47.536;19.066;2022-09-09T11:24:08;100217.22;;;25.94;49.65
60583;BME280;46415;47.536;19.066;2022-09-09T11:27:17;100212.38;;;26.06;50.50
60583;BME280;46415;47.536;19.066;2022-09-09T11:30:25;100219.16;;;26.16;50.34
60583;BME280;46415;47.536;19.066;2022-09-09T11:40:41;100214.81;;;27.01;47.06
60583;BME280;46415;47.536;19.066;2022-09-09T11:43:49;100219.22;;;27.40;46.31
60583;BME280;46415;47.536;19.066;2022-09-09T11:46:54;100211.41;;;27.15;44.12
60583;BME280;46415;47.536;19.066;2022-09-09T11:53:21;100189.72;;;26.96;46.34
60583;BME280;46415;47.536;19.066;2022-09-09T11:56:32;100188.56;;;26.28;47.49
60583;BME280;46415;47.536;19.066;2022-09-09T11:59:36;100192.22;;;26.19;47.79
60583;BME280;46415;47.536;19.066;2022-09-09T12:02:48;100196.94;;;26.09;47.62
60583;BME280;46415;47.536;19.066;2022-09-09T12:05:53;100197.00;;;25.77;47.44
60583;BME280;46415;47.536;19.066;2022-09-09T12:08:58;100192.19;;;25.56;47.96
60583;BME280;46415;47.536;19.066;2022-09-09T12:15:27;100194.25;;;26.09;48.28
60583;BME280;46415;47.536;19.066;2022-09-09T12:18:32;100208.06;;;26.05;47.56
60583;BME280;46415;47.536;19.066;2022-09-09T12:21:54;100221.25;;;25.66;47.45
60583;BME280;46415;47.536;19.066;2022-09-09T12:25:15;100216.63;;;25.68;48.69
60583;BME280;46415;47.536;19.066;2022-09-09T12:31:59;100210.44;;;25.91;46.58
60583;BME280;46415;47.536;19.066;2022-09-09T12:35:21;100199.56;;;26.25;46.46
60583;BME280;46415;47.536;19.066;2022-09-09T12:38:36;100194.28;;;26.56;46.65
60583;BME280;46415;47.536;19.066;2022-09-09T12:41:39;100184.91;;;26.60;44.31
60583;BME280;46415;47.536;19.066;2022-09-09T12:45:00;100186.78;;;26.52;45.25
60583;BME280;46415;47.536;19.066;2022-09-09T12:48:09;100180.25;;;26.31;45.60
60583;BME280;46415;47.536;19.066;2022-09-09T12:51:23;100179.53;;;26.37;45.57
60583;BME280;46415;47.536;19.066;2022-09-09T12:54:27;100175.87;;;26.38;44.63
60583;BME280;46415;47.536;19.066;2022-09-09T12:57:34;100171.88;;;26.42;44.59
60583;BME280;46415;47.536;19.066;2022-09-09T13:00:51;100165.47;;;26.52;44.75
60583;BME280;46415;47.536;19.066;2022-09-09T13:03:56;100167.72;;;26.40;45.60
60583;BME280;46415;47.536;19.066;2022-09-09T13:07:08;100162.34;;;26.48;45.01
60583;BME280;46415;47.536;19.066;2022-09-09T13:10:14;100156.50;;;26.53;44.86
60583;BME280;46415;47.536;19.066;2022-09-09T13:13:41;100149.84;;;26.57;44.73
60583;BME280;46415;47.536;19.066;2022-09-09T13:16:58;100140.22;;;26.78;45.34
60583;BME280;46415;47.536;19.066;2022-09-09T13:20:01;100143.06;;;27.00;44.07
60583;BME280;46415;47.536;19.066;2022-09-09T13:23:05;100141.31;;;26.92;43.44
60583;BME280;46415;47.536;19.066;2022-09-09T13:26:25;100138.13;;;26.97;44.40
60583;BME280;46415;47.536;19.066;2022-09-09T13:29:30;100129.28;;;26.96;41.96
60583;BME280;46415;47.536;19.066;2022-09-09T13:32:33;100129.13;;;26.98;41.76
60583;BME280;46415;47.536;19.066;2022-09-09T13:35:54;100126.84;;;26.87;44.32
60583;BME280;46415;47.536;19.066;2022-09-09T13:39:03;100126.69;;;26.88;43.88
60583;BME280;46415;47.536;19.066;2022-09-09T13:42:24;100122.37;;;27.25;42.70
60583;BME280;46415;47.536;19.066;2022-09-09T13:45:28;100121.87;;;27.44;41.08
60583;BME280;46415;47.536;19.066;2022-09-09T13:48:30;100126.94;;;27.39;39.60
60583;BME280;46415;47.536;19.066;2022-09-09T13:51:35;100126.47;;;27.50;39.23
60583;BME280;46415;47.536;19.066;2022-09-09T13:54:40;100121.47;;;27.55;41.18
60583;BME280;46415;47.536;19.066;2022-09-09T13:58:01;100115.16;;;27.71;40.48
60583;BME280;46415;47.536;19.066;2022-09-09T14:01:04;100117.34;;;27.82;39.86
60583;BME280;46415;47.536;19.066;2022-09-09T14:04:08;100110.50;;;27.50;39.50
60583;BME280;46415;47.536;19.066;2022-09-09T14:07:12;100098.47;;;27.83;40.23
60583;BME280;46415;47.536;19.066;2022-09-09T14:10:16;100095.78;;;28.27;39.17
60583;BME280;46415;47.536;19.066;2022-09-09T14:13:19;100083.53;;;28.33;38.41
60583;BME280;46415;47.536;19.066;2022-09-09T14:16:23;100079.59;;;28.14;40.80
60583;BME280;46415;47.536;19.066;2022-09-09T14:19:26;100078.56;;;28.00;40.40
60583;BME280;46415;47.536;19.066;2022-09-09T14:22:29;100074.03;;;27.94;38.68
60583;BME280;46415;47.536;19.066;2022-09-09T14:25:31;100073.66;;;27.68;39.12
60583;BME280;46415;47.536;19.066;2022-09-09T14:28:36;100072.38;;;27.64;40.43
60583;BME280;46415;47.536;19.066;2022-09-09T14:31:55;100073.84;;;27.52;40.85
60583;BME280;46415;47.536;19.066;2022-09-09T14:34:58;100079.97;;;27.38;40.68
60583;BME280;46415;47.536;19.066;2022-09-09T14:38:03;100082.28;;;27.41;40.96
60583;BME280;46415;47.536;19.066;2022-09-09T14:41:07;100081.16;;;27.50;40.55
60583;BME280;46415;47.536;19.066;2022-09-09T14:44:09;100070.34;;;27.66;39.73
60583;BME280;46415;47.536;19.066;2022-09-09T14:47:12;100064.41;;;28.15;37.81
60583;BME280;46415;47.536;19.066;2022-09-09T14:50:15;100066.84;;;28.31;37.26
60583;BME280;46415;47.536;19.066;2022-09-09T14:53:18;100069.59;;;28.16;37.49
60583;BME280;46415;47.536;19.066;2022-09-09T14:56:23;100073.09;;;27.87;37.33
60583;BME280;46415;47.536;19.066;2022-09-09T14:59:26;100065.47;;;27.70;39.01
60583;BME280;46415;47.536;19.066;2022-09-09T15:02:29;100074.94;;;27.72;40.15
60583;BME280;46415;47.536;19.066;2022-09-09T15:05:32;100069.69;;;27.79;38.37
60583;BME280;46415;47.536;19.066;2022-09-09T15:08:41;100080.66;;;27.69;38.56
60583;BME280;46415;47.536;19.066;2022-09-09T15:11:44;100070.97;;;27.53;38.88
60583;BME280;46415;47.536;19.066;2022-09-09T15:14:47;100075.28;;;27.40;38.75
60583;BME280;46415;47.536;19.066;2022-09-09T15:17:50;100077.09;;;27.25;38.84
60583;BME280;46415;47.536;19.066;2022-09-09T15:20:53;100077.75;;;27.27;41.03
60583;BME280;46415;47.536;19.066;2022-09-09T15:23:57;100077.81;;;27.71;38.31
60583;BME280;46415;47.536;19.066;2022-09-09T15:27:00;100071.63;;;29.20;36.59
60583;BME280;46415;47.536;19.066;2022-09-09T15:30:03;100071.34;;;31.19;32.80
60583;BME280;46415;47.536;19.066;2022-09-09T15:33:09;100078.91;;;30.50;33.72
60583;BME280;46415;47.536;19.066;2022-09-09T15:36:15;100072.25;;;31.90;32.40
60583;BME280;46415;47.536;19.066;2022-09-09T15:39:18;100062.41;;;33.78;27.67
60583;BME280;46415;47.536;19.066;2022-09-09T15:42:21;100076.75;;;34.68;26.61
60583;BME280;46415;47.536;19.066;2022-09-09T15:45:26;100063.91;;;36.60;24.24
60583;BME280;46415;47.536;19.066;2022-09-09T15:48:33;100069.47;;;37.70;23.49
60583;BME280;46415;47.536;19.066;2022-09-09T15:51:38;100063.25;;;37.36;22.33
60583;BME280;46415;47.536;19.066;2022-09-09T15:54:46;100062.03;;;35.52;25.00
60583;BME280;46415;47.536;19.066;2022-09-09T15:57:48;100064.97;;;33.05;27.91
60583;BME280;46415;47.536;19.066;2022-09-09T16:00:51;100070.09;;;30.95;32.91
60583;BME280;46415;47.536;19.066;2022-09-09T16:03:54;100063.63;;;29.48;37.33
60583;BME280;46415;47.536;19.066;2022-09-09T16:07:02;100060.41;;;28.61;37.10
60583;BME280;46415;47.536;19.066;2022-09-09T16:10:06;100068.50;;;27.81;37.65
60583;BME280;46415;47.536;19.066;2022-09-09T16:13:10;100072.47;;;27.18;38.90
60583;BME280;46415;47.536;19.066;2022-09-09T16:16:18;100080.56;;;26.65;40.66
60583;BME280;46415;47.536;19.066;2022-09-09T16:19:21;100085.44;;;26.30;44.13
60583;BME280;46415;47.536;19.066;2022-09-09T16:22:24;100085.50;;;26.14;43.35
60583;BME280;46415;47.536;19.066;2022-09-09T16:25:27;100083.94;;;25.89;46.42
60583;BME280;46415;47.536;19.066;2022-09-09T16:28:31;100080.72;;;25.54;47.01
60583;BME280;46415;47.536;19.066;2022-09-09T16:31:33;100083.75;;;25.27;50.03
60583;BME280;46415;47.536;19.066;2022-09-09T16:34:36;100088.44;;;25.01;48.71
60583;BME280;46415;47.536;19.066;2022-09-09T16:37:39;100091.72;;;24.87;48.24
60583;BME280;46415;47.536;19.066;2022-09-09T16:40:42;100086.06;;;24.73;51.51
60583;BME280;46415;47.536;19.066;2022-09-09T16:43:44;100084.87;;;24.52;50.09
60583;BME280;46415;47.536;19.066;2022-09-09T16:46:48;100081.69;;;24.40;50.45
60583;BME280;46415;47.536;19.066;2022-09-09T16:50:00;100077.00;;;24.26;51.88
60583;BME280;46415;47.536;19.066;2022-09-09T16:53:03;100075.13;;;24.10;51.48
60583;BME280;46415;47.536;19.066;2022-09-09T16:56:11;100075.22;;;23.92;54.01
60583;BME280;46415;47.536;19.066;2022-09-09T16:59:18;100082.44;;;23.74;58.64
60583;BME280;46415;47.536;19.066;2022-09-09T17:02:21;100088.19;;;23.44;60.73
60583;BME280;46415;47.536;19.066;2022-09-09T17:05:24;100090.81;;;23.18;62.83
60583;BME280;46415;47.536;19.066;2022-09-09T17:08:30;100092.38;;;23.03;63.41
60583;BME280;46415;47.536;19.066;2022-09-09T17:11:34;100085.28;;;22.86;65.39
60583;BME280;46415;47.536;19.066;2022-09-09T17:14:37;100094.87;;;22.69;65.45
60583;BME280;46415;47.536;19.066;2022-09-09T17:17:40;100091.63;;;22.57;66.97